MiSS Sydney — V7PG2 — position and weather

sailwx.info

Track history (hours):
 
Tides and Currents Weather Stations Pressure Air Temp Water Temp Dewpoint Dewpoint Depression Visibility Wind Speed Wind Dir Waves Ship Positions

MiSS Sydney

Last reported at 2017-Jun-25 13:52 UTC. Time now 2017-Jun-28 17:38 UTC.
Position N 18°18' W 064°53'.

Length 39 m; draft 2.1 m.

Type: . MMSI: 538070521.

Date/timePositionNaut miles runAvg speedWind from/ knotsBaromVisibWave heightAir tempDewpointWater temp
2017-Jun-25 13:52N 18°18' W 064°53'514.4
2017-Jun-25 13:30N 18°21' W 064°48'3 5.8
2017-Jun-25 13:00N 18°22' W 064°45'0 0.0
2017-Jun-25 12:30N 18°22' W 064°45'0 0.0
2017-Jun-25 12:00N 18°22' W 064°45'0 0.0
2017-Jun-25 11:30N 18°22' W 064°45'0 0.0
2017-Jun-25 11:00N 18°22' W 064°45'0 0.0
2017-Jun-25 10:30N 18°22' W 064°45'0 0.0
2017-Jun-25 09:59N 18°22' W 064°45'0 0.0
2017-Jun-25 09:30N 18°22' W 064°45'0 0.0
2017-Jun-25 09:00N 18°22' W 064°45'0 0.0
2017-Jun-25 08:31N 18°22' W 064°45'0 0.0
2017-Jun-25 08:00N 18°22' W 064°45'0 0.0
2017-Jun-25 07:30N 18°22' W 064°45'0 0.0
2017-Jun-25 07:00N 18°22' W 064°45'0 0.0
2017-Jun-25 06:30N 18°22' W 064°45'0 0.0
2017-Jun-25 06:00N 18°22' W 064°45'0 0.0
2017-Jun-25 05:30N 18°22' W 064°45'0 0.0
2017-Jun-25 05:00N 18°22' W 064°45'0 0.0
2017-Jun-25 04:30N 18°22' W 064°45'0 0.0
2017-Jun-25 04:00N 18°22' W 064°45'0 0.0
2017-Jun-25 03:30N 18°22' W 064°45'0 0.0
2017-Jun-25 03:00N 18°22' W 064°45'0 0.0
2017-Jun-25 02:30N 18°22' W 064°45'0 0.0
2017-Jun-25 02:00N 18°22' W 064°45'0 0.0
2017-Jun-25 01:31N 18°22' W 064°45'0 0.0
2017-Jun-25 01:00N 18°22' W 064°45'0 0.0
2017-Jun-25 00:30N 18°22' W 064°45'0 0.0
2017-Jun-25 00:00N 18°22' W 064°45'0 0.0
2017-Jun-24 23:30N 18°22' W 064°45'0 0.0
2017-Jun-24 23:00N 18°22' W 064°45'0 0.0
2017-Jun-24 22:30N 18°22' W 064°45'0 0.0
2017-Jun-24 22:00N 18°22' W 064°45'0 0.0
2017-Jun-24 21:30N 18°22' W 064°45'0 0.0
2017-Jun-24 21:00N 18°22' W 064°45'0 0.0
2017-Jun-24 20:30N 18°22' W 064°45'0 0.0
2017-Jun-24 20:00N 18°22' W 064°45'0 0.0
2017-Jun-24 19:30N 18°22' W 064°45'0 0.1
2017-Jun-24 19:00N 18°22' W 064°45'0 0.0
2017-Jun-24 18:30N 18°22' W 064°45'0 0.0
2017-Jun-24 18:00N 18°22' W 064°45'0 0.0
2017-Jun-24 17:30N 18°22' W 064°45'0 0.2
2017-Jun-24 17:00N 18°22' W 064°45'0 0.2
2017-Jun-24 16:30N 18°22' W 064°45'3 5.9
2017-Jun-24 16:00N 18°20' W 064°48'0 0.0
2017-Jun-24 15:30N 18°20' W 064°48'2 4.9
2017-Jun-24 15:00N 18°22' W 064°46'6 5.8
2017-Jun-24 14:00N 18°27' W 064°43'0 0.0
2017-Jun-24 13:30N 18°27' W 064°43'0 0.0
2017-Jun-24 13:00N 18°27' W 064°43'0 0.0
2017-Jun-24 12:30N 18°27' W 064°43'0 0.0
2017-Jun-24 12:00N 18°27' W 064°43'0 0.0
2017-Jun-24 11:30N 18°27' W 064°43'0 0.0
2017-Jun-24 11:00N 18°27' W 064°43'0 0.0
2017-Jun-24 10:30N 18°27' W 064°43'0 0.0
2017-Jun-24 10:00N 18°27' W 064°43'0 0.0
2017-Jun-24 09:30N 18°27' W 064°43'0 0.0
2017-Jun-24 09:00N 18°27' W 064°43'0 0.0
2017-Jun-24 08:30N 18°27' W 064°43'0 0.0
2017-Jun-24 08:00N 18°27' W 064°43'0 0.0
2017-Jun-24 07:30N 18°27' W 064°43'0 0.0
2017-Jun-24 07:00N 18°27' W 064°43'0 0.0
2017-Jun-24 06:30N 18°27' W 064°43'0 0.0
2017-Jun-24 06:00N 18°27' W 064°43'0 0.0
2017-Jun-24 05:30N 18°27' W 064°43'0 0.0
2017-Jun-24 05:00N 18°27' W 064°43'0 0.0
2017-Jun-24 04:30N 18°27' W 064°43'0 0.0
2017-Jun-24 04:00N 18°27' W 064°43'0 0.0
2017-Jun-24 03:30N 18°27' W 064°43'0 0.0
2017-Jun-24 03:00N 18°27' W 064°43'0 0.0
2017-Jun-24 02:30N 18°27' W 064°43'0 0.0
2017-Jun-24 02:00N 18°27' W 064°43'0 0.0
2017-Jun-24 01:30N 18°27' W 064°43'0 0.0
2017-Jun-24 01:00N 18°27' W 064°43'0 0.0
2017-Jun-24 00:30N 18°27' W 064°43'0 0.0
2017-Jun-24 00:00N 18°27' W 064°43'0 0.0
2017-Jun-23 23:30N 18°27' W 064°43'0 0.0
2017-Jun-23 23:00N 18°27' W 064°43'0 0.0
2017-Jun-23 22:17N 18°27' W 064°43'0 0.1
2017-Jun-23 22:00N 18°27' W 064°43'0 0.1
2017-Jun-23 21:30N 18°27' W 064°43'2 3.9
2017-Jun-23 21:00N 18°27' W 064°41'2 3.1
2017-Jun-23 20:28N 18°27' W 064°39'0 0.0
2017-Jun-23 20:00N 18°27' W 064°39'0 0.0
2017-Jun-23 19:26N 18°27' W 064°39'0 0.0
2017-Jun-23 19:01N 18°27' W 064°39'12 0.2
2017-Jun-21 15:39N 18°27' W 064°27'0 0.7
2017-Jun-21 15:26N 18°26' W 064°27'0 0.0
2017-Jun-21 14:51N 18°26' W 064°27'0 0.0
2017-Jun-21 14:20N 18°26' W 064°27'1 1.4
2017-Jun-21 13:24N 18°26' W 064°28'513.3
2017-Jun-21 13:00N 18°23' W 064°33'3 0.2
2017-Jun-20 18:15N 18°22' W 064°35'311.5
2017-Jun-20 17:59N 18°20' W 064°38'3 0.8
2017-Jun-20 13:48N 18°22' W 064°41'2 6.9
2017-Jun-20 13:30N 18°23' W 064°42'0 0.1
2017-Jun-20 13:01N 18°23' W 064°42'2 4.9
2017-Jun-20 12:30N 18°23' W 064°45'713.1
2017-Jun-20 12:00N 18°21' W 064°52'  
Track history (hours):
 
Tides and Currents Weather Stations Pressure Air Temp Water Temp Dewpoint Dewpoint Depression Visibility Wind Speed Wind Dir Waves Ship Positions

MiSS Sydney

Last reported at 2017-Jun-25 13:52 UTC. Time now 2017-Jun-28 17:38 UTC.
Position N 18°18' W 064°53'.

Length 39 m; draft 2.1 m.

Type: . MMSI: 538070521.

Date/timePositionNaut miles runAvg speedWind from/ knotsBaromVisibWave heightAir tempDewpointWater temp
2017-Jun-25 13:52N 18°18' W 064°53'514.4
2017-Jun-25 13:30N 18°21' W 064°48'3 5.8
2017-Jun-25 13:00N 18°22' W 064°45'0 0.0
2017-Jun-25 12:30N 18°22' W 064°45'0 0.0
2017-Jun-25 12:00N 18°22' W 064°45'0 0.0
2017-Jun-25 11:30N 18°22' W 064°45'0 0.0
2017-Jun-25 11:00N 18°22' W 064°45'0 0.0
2017-Jun-25 10:30N 18°22' W 064°45'0 0.0
2017-Jun-25 09:59N 18°22' W 064°45'0 0.0
2017-Jun-25 09:30N 18°22' W 064°45'0 0.0
2017-Jun-25 09:00N 18°22' W 064°45'0 0.0
2017-Jun-25 08:31N 18°22' W 064°45'0 0.0
2017-Jun-25 08:00N 18°22' W 064°45'0 0.0
2017-Jun-25 07:30N 18°22' W 064°45'0 0.0
2017-Jun-25 07:00N 18°22' W 064°45'0 0.0
2017-Jun-25 06:30N 18°22' W 064°45'0 0.0
2017-Jun-25 06:00N 18°22' W 064°45'0 0.0
2017-Jun-25 05:30N 18°22' W 064°45'0 0.0
2017-Jun-25 05:00N 18°22' W 064°45'0 0.0
2017-Jun-25 04:30N 18°22' W 064°45'0 0.0
2017-Jun-25 04:00N 18°22' W 064°45'0 0.0
2017-Jun-25 03:30N 18°22' W 064°45'0 0.0
2017-Jun-25 03:00N 18°22' W 064°45'0 0.0
2017-Jun-25 02:30N 18°22' W 064°45'0 0.0
2017-Jun-25 02:00N 18°22' W 064°45'0 0.0
2017-Jun-25 01:31N 18°22' W 064°45'0 0.0
2017-Jun-25 01:00N 18°22' W 064°45'0 0.0
2017-Jun-25 00:30N 18°22' W 064°45'0 0.0
2017-Jun-25 00:00N 18°22' W 064°45'0 0.0
2017-Jun-24 23:30N 18°22' W 064°45'0 0.0
2017-Jun-24 23:00N 18°22' W 064°45'0 0.0
2017-Jun-24 22:30N 18°22' W 064°45'0 0.0
2017-Jun-24 22:00N 18°22' W 064°45'0 0.0
2017-Jun-24 21:30N 18°22' W 064°45'0 0.0
2017-Jun-24 21:00N 18°22' W 064°45'0 0.0
2017-Jun-24 20:30N 18°22' W 064°45'0 0.0
2017-Jun-24 20:00N 18°22' W 064°45'0 0.0
2017-Jun-24 19:30N 18°22' W 064°45'0 0.1
2017-Jun-24 19:00N 18°22' W 064°45'0 0.0
2017-Jun-24 18:30N 18°22' W 064°45'0 0.0
2017-Jun-24 18:00N 18°22' W 064°45'0 0.0
2017-Jun-24 17:30N 18°22' W 064°45'0 0.2
2017-Jun-24 17:00N 18°22' W 064°45'0 0.2
2017-Jun-24 16:30N 18°22' W 064°45'3 5.9
2017-Jun-24 16:00N 18°20' W 064°48'0 0.0
2017-Jun-24 15:30N 18°20' W 064°48'2 4.9
2017-Jun-24 15:00N 18°22' W 064°46'6 5.8
2017-Jun-24 14:00N 18°27' W 064°43'0 0.0
2017-Jun-24 13:30N 18°27' W 064°43'0 0.0
2017-Jun-24 13:00N 18°27' W 064°43'0 0.0
2017-Jun-24 12:30N 18°27' W 064°43'0 0.0
2017-Jun-24 12:00N 18°27' W 064°43'0 0.0
2017-Jun-24 11:30N 18°27' W 064°43'0 0.0
2017-Jun-24 11:00N 18°27' W 064°43'0 0.0
2017-Jun-24 10:30N 18°27' W 064°43'0 0.0
2017-Jun-24 10:00N 18°27' W 064°43'0 0.0
2017-Jun-24 09:30N 18°27' W 064°43'0 0.0
2017-Jun-24 09:00N 18°27' W 064°43'0 0.0
2017-Jun-24 08:30N 18°27' W 064°43'0 0.0
2017-Jun-24 08:00N 18°27' W 064°43'0 0.0
2017-Jun-24 07:30N 18°27' W 064°43'0 0.0
2017-Jun-24 07:00N 18°27' W 064°43'0 0.0
2017-Jun-24 06:30N 18°27' W 064°43'0 0.0
2017-Jun-24 06:00N 18°27' W 064°43'0 0.0
2017-Jun-24 05:30N 18°27' W 064°43'0 0.0
2017-Jun-24 05:00N 18°27' W 064°43'0 0.0
2017-Jun-24 04:30N 18°27' W 064°43'0 0.0
2017-Jun-24 04:00N 18°27' W 064°43'0 0.0
2017-Jun-24 03:30N 18°27' W 064°43'0 0.0
2017-Jun-24 03:00N 18°27' W 064°43'0 0.0
2017-Jun-24 02:30N 18°27' W 064°43'0 0.0
2017-Jun-24 02:00N 18°27' W 064°43'0 0.0
2017-Jun-24 01:30N 18°27' W 064°43'0 0.0
2017-Jun-24 01:00N 18°27' W 064°43'0 0.0
2017-Jun-24 00:30N 18°27' W 064°43'0 0.0
2017-Jun-24 00:00N 18°27' W 064°43'0 0.0
2017-Jun-23 23:30N 18°27' W 064°43'0 0.0
2017-Jun-23 23:00N 18°27' W 064°43'0 0.0
2017-Jun-23 22:17N 18°27' W 064°43'0 0.1
2017-Jun-23 22:00N 18°27' W 064°43'0 0.1
2017-Jun-23 21:30N 18°27' W 064°43'2 3.9
2017-Jun-23 21:00N 18°27' W 064°41'2 3.1
2017-Jun-23 20:28N 18°27' W 064°39'0 0.0
2017-Jun-23 20:00N 18°27' W 064°39'0 0.0
2017-Jun-23 19:26N 18°27' W 064°39'0 0.0
2017-Jun-23 19:01N 18°27' W 064°39'12 0.2
2017-Jun-21 15:39N 18°27' W 064°27'0 0.7
2017-Jun-21 15:26N 18°26' W 064°27'0 0.0
2017-Jun-21 14:51N 18°26' W 064°27'0 0.0
2017-Jun-21 14:20N 18°26' W 064°27'1 1.4
2017-Jun-21 13:24N 18°26' W 064°28'513.3
2017-Jun-21 13:00N 18°23' W 064°33'3 0.2
2017-Jun-20 18:15N 18°22' W 064°35'311.5
2017-Jun-20 17:59N 18°20' W 064°38'3 0.8
2017-Jun-20 13:48N 18°22' W 064°41'2 6.9
2017-Jun-20 13:30N 18°23' W 064°42'0 0.1
2017-Jun-20 13:01N 18°23' W 064°42'2 4.9
2017-Jun-20 12:30N 18°23' W 064°45'713.1
2017-Jun-20 12:00N 18°21' W 064°52'  

Dump ship's entire track history